createdAt,value
2017-12-01T00:04:49.908Z,0
2017-12-01T00:09:49.773Z,0
2017-12-01T00:14:49.714Z,0
2017-12-01T00:19:49.656Z,0
2017-12-01T00:24:49.330Z,0
2017-12-01T00:29:49.537Z,0
2017-12-01T00:34:49.440Z,0
2017-12-01T00:39:49.120Z,0
2017-12-01T00:44:49.318Z,0
2017-12-01T00:49:49.276Z,0
2017-12-01T00:54:49.182Z,0
2017-12-01T00:59:49.159Z,0
2017-12-01T01:04:49.078Z,0
2017-12-01T01:09:48.986Z,0
2017-12-01T01:14:48.924Z,0
2017-12-01T01:19:48.984Z,0
2017-12-01T01:24:48.796Z,0
2017-12-01T01:29:48.478Z,0
2017-12-01T01:34:48.661Z,0
2017-12-01T01:39:48.620Z,0
2017-12-01T01:44:48.539Z,0
2017-12-01T01:49:48.505Z,0
2017-12-01T01:54:48.505Z,0
2017-12-01T01:59:48.327Z,0
2017-12-01T02:04:48.350Z,0
2017-12-01T02:09:48.209Z,0
2017-12-01T02:14:48.164Z,0
2017-12-01T02:19:48.189Z,0
2017-12-01T02:24:48.020Z,0
2017-12-01T02:29:47.707Z,0
2017-12-01T02:34:47.879Z,0
2017-12-01T02:39:47.826Z,0
2017-12-01T02:44:47.742Z,0
2017-12-01T02:49:47.729Z,0
2017-12-01T02:54:47.617Z,0
2017-12-01T02:59:47.553Z,0
2017-12-01T03:04:47.464Z,0
2017-12-01T03:09:47.399Z,0
2017-12-01T03:14:46.810Z,0
2017-12-01T03:19:47.277Z,0
2017-12-01T03:24:47.203Z,0
2017-12-01T03:29:46.931Z,0
2017-12-01T03:34:47.083Z,0
2017-12-01T03:39:47.017Z,0
2017-12-01T03:44:46.945Z,0
2017-12-01T03:49:46.853Z,0
2017-12-01T03:54:46.794Z,0
2017-12-01T03:59:46.827Z,0
2017-12-01T04:04:46.656Z,0
2017-12-01T04:09:46.339Z,0
2017-12-01T04:14:46.648Z,0
2017-12-01T04:19:46.236Z,0
2017-12-01T04:24:46.404Z,0
2017-12-01T04:29:46.346Z,0
2017-12-01T04:34:46.288Z,0
2017-12-01T04:39:46.224Z,0
2017-12-01T04:44:46.260Z,0
2017-12-01T04:49:45.859Z,0
2017-12-01T04:54:46.014Z,0
2017-12-01T04:59:45.697Z,0
2017-12-01T05:04:45.916Z,0
2017-12-01T05:09:45.801Z,0
2017-12-01T05:14:45.500Z,0
2017-12-01T05:19:45.690Z,0
2017-12-01T05:24:45.588Z,0
2017-12-01T05:29:45.528Z,0
2017-12-01T05:34:45.486Z,0
2017-12-01T05:39:45.136Z,0
2017-12-01T05:44:45.398Z,0
2017-12-01T05:49:45.278Z,0
2017-12-01T05:54:45.219Z,0
2017-12-01T05:59:45.168Z,0
2017-12-01T06:04:44.556Z,0
2017-12-01T06:09:44.745Z,0
2017-12-01T06:14:44.934Z,0
2017-12-01T06:19:44.925Z,0
2017-12-01T06:24:44.826Z,0
2017-12-01T06:29:44.774Z,0
2017-12-01T06:34:44.686Z,0
2017-12-01T06:39:44.421Z,0
2017-12-01T06:44:44.613Z,0
2017-12-01T06:49:44.512Z,0
2017-12-01T06:54:44.527Z,0
2017-12-01T06:59:43.869Z,0
2017-12-01T07:04:44.341Z,0
2017-12-01T07:09:44.240Z,0
2017-12-01T07:14:44.211Z,0
2017-12-01T07:19:43.871Z,0
2017-12-01T07:24:44.077Z,0
2017-12-01T07:29:43.753Z,0
2017-12-01T07:34:43.735Z,0
2017-12-01T07:39:43.941Z,20
2017-12-01T07:44:43.821Z,20
2017-12-01T07:49:43.765Z,20
2017-12-01T07:54:43.694Z,24
2017-12-01T07:59:43.644Z,24
2017-12-01T08:04:43.691Z,24
2017-12-01T08:09:43.516Z,8
2017-12-01T08:14:43.467Z,8
2017-12-01T08:19:43.433Z,12
2017-12-01T08:24:43.081Z,16
2017-12-01T08:29:43.256Z,16
2017-12-01T08:34:43.192Z,16
2017-12-01T08:39:42.876Z,20
2017-12-01T08:44:42.817Z,24
2017-12-01T08:49:43.074Z,24
2017-12-01T08:54:42.982Z,28
2017-12-01T08:59:42.727Z,28
2017-12-01T09:04:42.840Z,28
2017-12-01T09:09:42.758Z,28
2017-12-01T09:14:42.456Z,32
2017-12-01T09:19:42.638Z,36
2017-12-01T09:24:42.632Z,28
2017-12-01T09:29:42.497Z,28
2017-12-01T09:34:42.445Z,24
2017-12-01T09:39:42.406Z,24
2017-12-01T09:44:42.352Z,24
2017-12-01T09:49:42.272Z,64
2017-12-01T09:54:42.275Z,80
2017-12-01T09:59:42.211Z,92
2017-12-01T10:04:42.099Z,28
2017-12-01T10:09:42.066Z,36
2017-12-01T10:14:41.983Z,28
2017-12-01T10:19:41.907Z,40
2017-12-01T10:24:41.859Z,44
2017-12-01T10:29:41.780Z,56
2017-12-01T10:34:41.884Z,68
2017-12-01T10:39:41.756Z,68
2017-12-01T10:44:41.329Z,156
2017-12-01T10:49:41.557Z,52
2017-12-01T10:54:41.216Z,104
2017-12-01T10:59:41.477Z,136
2017-12-01T11:04:41.380Z,152
2017-12-01T11:09:41.307Z,108
2017-12-01T11:14:41.248Z,136
2017-12-01T11:19:41.235Z,52
2017-12-01T11:24:41.235Z,100
2017-12-01T11:29:41.116Z,36
2017-12-01T11:34:41.047Z,60
2017-12-01T11:39:40.695Z,40
2017-12-01T11:44:40.987Z,48
2017-12-01T11:49:40.861Z,36
2017-12-01T11:54:40.815Z,40
2017-12-01T11:59:40.883Z,48
2017-12-01T12:04:40.689Z,48
2017-12-01T12:09:40.656Z,68
2017-12-01T12:14:40.565Z,48
2017-12-01T12:19:40.614Z,64
2017-12-01T12:24:40.595Z,56
2017-12-01T12:29:40.459Z,72
2017-12-01T12:34:40.377Z,56
2017-12-01T12:39:40.285Z,48
2017-12-01T12:44:40.028Z,56
2017-12-01T12:49:40.181Z,56
2017-12-01T12:54:39.872Z,60
2017-12-01T12:59:39.808Z,52
2017-12-01T13:04:39.809Z,68
2017-12-01T13:09:39.979Z,60
2017-12-01T13:14:39.887Z,68
2017-12-01T13:19:39.892Z,80
2017-12-01T13:24:39.783Z,56
2017-12-01T13:29:39.726Z,40
2017-12-01T13:34:39.406Z,36
2017-12-01T13:39:39.614Z,32
2017-12-01T13:44:39.528Z,32
2017-12-01T13:49:39.490Z,20
2017-12-01T13:54:39.426Z,12
2017-12-01T13:59:39.140Z,8
2017-12-01T14:04:39.298Z,12
2017-12-01T14:09:39.234Z,12
2017-12-01T14:14:39.171Z,16
2017-12-01T14:19:39.129Z,16
2017-12-01T14:24:39.082Z,16
2017-12-01T14:29:39.147Z,12
2017-12-01T14:34:38.946Z,16
2017-12-01T14:39:38.870Z,12
2017-12-01T14:44:38.848Z,12
2017-12-01T14:49:38.767Z,8
2017-12-01T14:54:38.699Z,8
2017-12-01T14:59:38.131Z,8
2017-12-01T15:04:38.579Z,20
2017-12-01T15:09:38.513Z,16
2017-12-01T15:14:38.455Z,16
2017-12-01T15:19:38.393Z,16
2017-12-01T15:24:38.069Z,16
2017-12-01T15:29:38.276Z,16
2017-12-01T15:34:38.239Z,16
2017-12-01T15:39:38.192Z,16
2017-12-01T15:44:38.091Z,16
2017-12-01T15:49:38.189Z,16
2017-12-01T15:54:37.976Z,16
2017-12-01T15:59:37.914Z,16
2017-12-01T16:04:37.866Z,16
2017-12-01T16:09:37.893Z,16
2017-12-01T16:14:37.811Z,16
2017-12-01T16:19:37.697Z,12
2017-12-01T16:24:37.652Z,12
2017-12-01T16:29:37.562Z,16
2017-12-01T16:34:37.530Z,16
2017-12-01T16:39:37.484Z,16
2017-12-01T16:44:37.445Z,12
2017-12-01T16:49:37.084Z,16
2017-12-01T16:54:37.295Z,16
2017-12-01T16:59:37.261Z,12
2017-12-01T17:04:37.325Z,12
2017-12-01T17:09:37.132Z,16
2017-12-01T17:14:37.077Z,16
2017-12-01T17:19:37.005Z,12
2017-12-01T17:24:36.973Z,12
2017-12-01T17:29:37.005Z,12
2017-12-01T17:34:36.599Z,12
2017-12-01T17:39:36.766Z,12
2017-12-01T17:44:36.714Z,12
2017-12-01T17:49:36.670Z,12
2017-12-01T17:54:36.666Z,12
2017-12-01T17:59:36.567Z,16
2017-12-01T18:04:36.490Z,12
2017-12-01T18:09:36.464Z,12
2017-12-01T18:14:36.499Z,12
2017-12-01T18:19:36.448Z,16
2017-12-01T18:35:29.138Z,96
2017-12-01T18:40:28.984Z,0
2017-12-01T18:45:28.918Z,0
2017-12-01T18:50:28.885Z,0
2017-12-01T18:55:28.806Z,0
2017-12-01T19:00:28.731Z,0
2017-12-01T19:05:28.711Z,0
2017-12-01T19:10:28.432Z,0
2017-12-01T19:15:28.393Z,0
2017-12-01T19:20:28.517Z,0
2017-12-01T19:25:28.524Z,0
2017-12-01T19:30:28.353Z,0
2017-12-01T19:35:28.285Z,0
2017-12-01T19:40:28.267Z,0
2017-12-01T19:45:27.937Z,0
2017-12-01T19:50:28.196Z,0
2017-12-01T19:55:28.063Z,0
2017-12-01T20:00:27.782Z,0
2017-12-01T20:05:27.945Z,0
2017-12-01T20:10:27.845Z,0
2017-12-01T20:15:28.027Z,0
2017-12-01T20:20:27.713Z,0
2017-12-01T20:25:27.528Z,0
2017-12-01T20:30:27.591Z,0
2017-12-01T20:35:27.521Z,0
2017-12-01T20:40:27.464Z,0
2017-12-01T20:45:27.406Z,0
2017-12-01T20:50:27.369Z,0
2017-12-01T20:55:27.290Z,0
2017-12-01T21:00:26.960Z,0
2017-12-01T21:05:26.913Z,0
2017-12-01T21:10:27.079Z,0
2017-12-01T21:15:26.747Z,0
2017-12-01T21:20:26.953Z,0
2017-12-01T21:25:26.894Z,0
2017-12-01T21:30:27.112Z,0
2017-12-01T21:35:26.774Z,0
2017-12-01T21:40:26.427Z,0
2017-12-01T21:45:26.642Z,0
2017-12-01T21:50:26.048Z,0
2017-12-01T21:55:26.598Z,0
2017-12-01T22:00:26.474Z,0
2017-12-01T22:05:26.514Z,0
2017-12-01T22:10:26.379Z,0
2017-12-01T22:15:26.264Z,0
2017-12-01T22:20:26.185Z,0
2017-12-01T22:25:26.129Z,0
2017-12-01T22:30:26.114Z,0
2017-12-01T22:35:25.992Z,0
2017-12-01T22:40:25.966Z,0
2017-12-01T22:45:25.616Z,0
2017-12-01T22:50:25.807Z,0
2017-12-01T22:55:25.747Z,0
2017-12-01T23:00:25.460Z,0
2017-12-01T23:05:25.598Z,0
2017-12-01T23:10:25.583Z,0
2017-12-01T23:15:25.489Z,0
2017-12-01T23:20:25.394Z,0
2017-12-01T23:25:25.308Z,0
2017-12-01T23:30:25.269Z,0
2017-12-01T23:35:25.016Z,0
2017-12-01T23:40:25.133Z,0
2017-12-01T23:45:25.098Z,0
2017-12-01T23:50:24.726Z,0
2017-12-01T23:55:24.675Z,0
